Time;durP1;ratioP1;P1;durP2;ratioP2;P2;SDS_P1;SDS_P2;PMS_P1;PMS_P2;Temp;Humidity;BMP_temperature;BMP_pressure;BME280_temperature;BME280_humidity;BME280_pressure;Samples;Min_cycle;Max_cycle;Signal;HPM_P1;HPM_P2
2021/01/30 00:00:51;;;;;;;2.45;1.30;;;6.50;99.90;;;;;;4942474;28;20235;-71
2021/01/30 00:03:17;;;;;;;2.30;1.15;;;6.50;99.90;;;;;;4942304;28;20228;-71
2021/01/30 00:05:44;;;;;;;1.65;1.08;;;6.50;99.90;;;;;;4942251;28;20216;-70
2021/01/30 00:08:11;;;;;;;1.77;1.17;;;6.50;99.90;;;;;;4942834;28;20204;-70
2021/01/30 00:10:37;;;;;;;2.85;1.23;;;6.50;99.90;;;;;;4942503;28;20215;-70
2021/01/30 00:13:05;;;;;;;1.48;1.25;;;6.50;99.90;;;;;;4941756;28;20258;-70
2021/01/30 00:15:31;;;;;;;1.65;1.08;;;6.50;99.90;;;;;;4942706;28;20212;-70
2021/01/30 00:17:58;;;;;;;2.47;1.20;;;6.50;99.90;;;;;;4942437;28;20232;-70
2021/01/30 00:20:31;;;;;;;2.45;1.30;;;6.40;99.90;;;;;;4942672;28;20204;-70
2021/01/30 00:22:58;;;;;;;2.80;1.65;;;6.40;99.90;;;;;;4941946;28;20240;-70
2021/01/30 00:25:27;;;;;;;1.40;1.30;;;6.30;99.90;;;;;;4943241;28;20575;-70
2021/01/30 00:27:55;;;;;;;2.00;1.05;;;6.30;99.90;;;;;;4944119;28;20205;-70
2021/01/30 00:30:23;;;;;;;2.85;1.27;;;6.20;99.90;;;;;;4944198;28;20208;-70
2021/01/30 00:32:50;;;;;;;1.30;1.20;;;6.20;99.90;;;;;;4943416;28;20232;-70
2021/01/30 00:35:18;;;;;;;1.60;1.10;;;6.20;99.90;;;;;;4944172;28;20257;-70
2021/01/30 00:37:44;;;;;;;1.50;1.00;;;6.10;99.90;;;;;;4944125;28;20224;-70
2021/01/30 00:40:11;;;;;;;1.60;1.00;;;6.00;99.90;;;;;;4943956;28;20299;-70
2021/01/30 00:42:38;;;;;;;1.10;1.00;;;6.00;99.90;;;;;;4943377;28;20224;-70
2021/01/30 00:45:07;;;;;;;3.70;1.40;;;5.90;99.90;;;;;;4943623;28;20209;-70
2021/01/30 00:47:34;;;;;;;1.80;1.27;;;5.90;99.90;;;;;;4942910;28;20256;-70
2021/01/30 00:50:00;;;;;;;3.15;0.95;;;5.90;99.90;;;;;;4943083;28;20231;-70
2021/01/30 00:52:27;;;;;;;1.10;1.00;;;5.90;99.90;;;;;;4942268;28;20231;-70
2021/01/30 00:54:54;;;;;;;1.50;1.00;;;5.90;99.90;;;;;;4942727;28;20926;-71
2021/01/30 00:57:20;;;;;;;1.70;1.10;;;5.90;99.90;;;;;;4943204;28;20215;-71
2021/01/30 00:59:46;;;;;;;3.00;1.13;;;5.90;99.90;;;;;;4942677;28;20294;-71
2021/01/30 01:02:13;;;;;;;1.80;1.25;;;5.90;99.90;;;;;;4942346;28;20208;-71
2021/01/30 01:04:42;;;;;;;2.45;1.10;;;6.00;99.90;;;;;;4942320;28;20232;-71
2021/01/30 01:07:08;;;;;;;1.85;1.10;;;6.00;99.90;;;;;;4943107;28;20227;-71
2021/01/30 01:09:35;;;;;;;7.53;1.40;;;6.10;99.90;;;;;;4942635;28;20607;-71
2021/01/30 01:12:02;;;;;;;3.78;1.27;;;6.10;99.90;;;;;;4942402;28;20867;-71
2021/01/30 01:14:28;;;;;;;3.28;1.00;;;6.10;99.90;;;;;;4942824;28;20231;-71
2021/01/30 01:16:54;;;;;;;3.20;1.00;;;6.10;99.90;;;;;;4946171;28;20390;-71
2021/01/30 01:19:21;;;;;;;1.88;1.10;;;6.00;99.90;;;;;;4945889;28;20232;-71
2021/01/30 01:21:50;;;;;;;4.60;1.30;;;6.00;99.90;;;;;;4949632;28;20226;-71
2021/01/30 01:24:17;;;;;;;1.60;1.00;;;6.00;99.90;;;;;;4950209;28;20650;-71
2021/01/30 01:26:45;;;;;;;1.60;0.88;;;6.00;99.90;;;;;;4950831;28;20246;-71
2021/01/30 01:29:13;;;;;;;2.60;0.88;;;6.00;99.90;;;;;;4950374;28;20213;-71
2021/01/30 01:31:39;;;;;;;1.48;0.95;;;6.10;99.90;;;;;;4949852;28;20231;-71
2021/01/30 01:34:05;;;;;;;1.33;1.10;;;6.10;99.90;;;;;;4949790;28;20220;-71
2021/01/30 01:36:32;;;;;;;1.50;1.02;;;6.10;99.90;;;;;;4950413;28;20208;-71
2021/01/30 01:38:58;;;;;;;2.00;1.00;;;6.10;99.90;;;;;;4950154;28;20224;-71
2021/01/30 01:41:24;;;;;;;5.15;1.20;;;6.20;99.90;;;;;;4950349;28;20208;-71
2021/01/30 01:43:52;;;;;;;1.42;1.10;;;6.20;99.90;;;;;;4949681;28;20225;-71
2021/01/30 01:46:24;;;;;;;1.05;0.88;;;6.20;99.90;;;;;;4950183;28;20215;-71
2021/01/30 01:48:55;;;;;;;4.72;1.08;;;6.20;99.90;;;;;;4950281;28;20200;-71
2021/01/30 01:51:28;;;;;;;2.05;0.98;;;6.10;99.90;;;;;;4950064;28;20204;-71
2021/01/30 01:53:59;;;;;;;1.00;0.80;;;6.10;99.90;;;;;;4949393;28;20267;-71
2021/01/30 01:56:28;;;;;;;2.45;1.25;;;6.00;99.90;;;;;;4950164;28;20205;-71
2021/01/30 01:59:01;;;;;;;1.52;0.85;;;6.00;99.90;;;;;;4949903;28;20228;-71
2021/01/30 02:01:28;;;;;;;0.90;0.70;;;6.00;99.90;;;;;;4949896;28;20204;-71
2021/01/30 02:03:57;;;;;;;2.90;1.13;;;6.00;99.90;;;;;;4949471;28;20241;-71
2021/01/30 02:06:24;;;;;;;0.88;0.70;;;6.00;99.90;;;;;;4949792;28;20205;-71
2021/01/30 02:08:51;;;;;;;1.08;0.80;;;5.90;99.90;;;;;;4950260;28;20204;-71
2021/01/30 02:11:18;;;;;;;0.80;0.75;;;5.90;99.90;;;;;;4949502;28;20204;-71
2021/01/30 02:13:48;;;;;;;1.00;0.80;;;5.90;99.90;;;;;;4949335;28;21084;-71
2021/01/30 02:16:26;;;;;;;1.05;0.80;;;5.90;99.90;;;;;;4949745;28;20270;-71
2021/01/30 02:19:05;;;;;;;2.33;0.80;;;5.90;99.90;;;;;;4949631;28;20220;-71
2021/01/30 02:22:32;;;;;;;3.17;0.95;;;5.90;99.90;;;;;;4946539;28;20618;-71
2021/01/30 02:25:26;;;;;;;1.85;0.82;;;5.90;99.90;;;;;;4908931;28;20679;-71
2021/01/30 02:28:11;;;;;;;1.48;0.95;;;5.80;99.90;;;;;;4908726;28;20595;-71
2021/01/30 02:31:15;;;;;;;1.20;0.90;;;5.80;99.90;;;;;;4947135;28;20205;-71
2021/01/30 02:34:00;;;;;;;0.95;0.70;;;5.80;99.90;;;;;;4949096;28;20381;-71
2021/01/30 02:36:32;;;;;;;0.80;0.80;;;5.80;99.90;;;;;;4949487;28;20204;-71
2021/01/30 02:39:07;;;;;;;1.83;0.93;;;5.80;99.90;;;;;;4949346;28;20228;-71
2021/01/30 02:41:36;;;;;;;1.25;0.88;;;5.70;99.90;;;;;;4949155;28;20215;-72
2021/01/30 02:44:06;;;;;;;0.80;0.70;;;5.70;99.90;;;;;;4949193;28;20231;-71
2021/01/30 02:46:36;;;;;;;0.80;0.70;;;5.60;99.90;;;;;;4949619;28;20204;-71
2021/01/30 02:49:08;;;;;;;1.45;0.80;;;5.50;99.90;;;;;;4949138;28;20197;-71
2021/01/30 02:51:39;;;;;;;0.90;0.77;;;5.40;99.90;;;;;;4949120;28;20204;-71
2021/01/30 02:54:09;;;;;;;1.10;1.00;;;5.40;99.90;;;;;;4948809;28;20290;-72
2021/01/30 02:56:35;;;;;;;2.35;0.90;;;5.30;99.90;;;;;;4949272;28;20212;-71
2021/01/30 02:59:05;;;;;;;0.90;0.77;;;5.30;99.90;;;;;;4948705;28;20640;-72
2021/01/30 03:01:34;;;;;;;0.80;0.70;;;5.20;99.90;;;;;;4949034;28;20208;-71
2021/01/30 03:04:05;;;;;;;1.75;0.80;;;5.20;99.90;;;;;;4948742;28;20240;-71
2021/01/30 03:06:41;;;;;;;1.15;0.80;;;5.30;99.90;;;;;;4949078;28;20334;-71
2021/01/30 03:09:13;;;;;;;1.73;0.80;;;5.30;99.90;;;;;;4949033;28;20226;-71
2021/01/30 03:11:43;;;;;;;1.30;1.00;;;5.30;99.90;;;;;;4948446;28;20215;-71
2021/01/30 03:14:17;;;;;;;1.70;0.88;;;5.30;99.90;;;;;;4948966;28;20222;-71
2021/01/30 03:16:44;;;;;;;1.05;0.93;;;5.30;99.90;;;;;;4948847;28;20200;-71
2021/01/30 03:19:13;;;;;;;2.83;1.10;;;5.30;99.90;;;;;;4948837;28;20236;-71
2021/01/30 03:21:42;;;;;;;1.75;0.98;;;5.30;99.90;;;;;;4948382;28;20204;-71
2021/01/30 03:24:09;;;;;;;0.98;0.88;;;5.30;99.90;;;;;;4948361;28;20228;-71
2021/01/30 03:26:40;;;;;;;1.00;0.80;;;5.40;99.90;;;;;;4948836;28;20274;-71
2021/01/30 03:29:06;;;;;;;1.00;0.77;;;5.40;99.90;;;;;;4948421;28;20204;-71
2021/01/30 03:31:32;;;;;;;1.70;0.90;;;5.40;99.90;;;;;;4948624;28;20212;-71
2021/01/30 03:33:59;;;;;;;1.20;1.00;;;5.40;99.90;;;;;;4948246;28;20278;-71
2021/01/30 03:36:25;;;;;;;1.35;1.15;;;5.50;99.90;;;;;;4948425;28;20676;-71
2021/01/30 03:38:52;;;;;;;2.75;1.10;;;5.50;99.90;;;;;;4947617;28;20243;-71
2021/01/30 03:41:18;;;;;;;1.88;1.00;;;5.50;99.90;;;;;;4948375;28;20212;-71
2021/01/30 03:43:44;;;;;;;1.40;0.95;;;5.50;99.90;;;;;;4947958;28;20388;-71
2021/01/30 03:46:11;;;;;;;2.80;1.08;;;5.50;99.90;;;;;;4948434;28;20623;-71
2021/01/30 03:48:37;;;;;;;0.85;0.80;;;5.50;99.90;;;;;;4948231;28;20200;-71
2021/01/30 03:51:04;;;;;;;0.90;0.73;;;5.50;99.90;;;;;;4948252;28;20201;-71
2021/01/30 03:53:30;;;;;;;1.20;1.02;;;5.50;99.90;;;;;;4947663;28;20228;-71
2021/01/30 03:55:57;;;;;;;2.13;0.90;;;5.50;99.90;;;;;;4948402;28;20683;-71
2021/01/30 03:58:23;;;;;;;1.52;1.00;;;5.50;99.90;;;;;;4948259;28;20224;-71
2021/01/30 04:00:49;;;;;;;1.38;1.02;;;5.50;99.90;;;;;;4948143;28;20628;-71
2021/01/30 04:03:15;;;;;;;0.85;0.80;;;5.50;99.90;;;;;;4947316;28;20232;-71
2021/01/30 04:05:42;;;;;;;2.67;1.52;;;5.50;99.90;;;;;;4947956;28;20204;-71
2021/01/30 04:08:09;;;;;;;1.20;0.90;;;5.50;99.90;;;;;;4948025;28;20200;-71
2021/01/30 04:10:37;;;;;;;1.05;0.85;;;5.50;99.90;;;;;;4948207;28;20707;-71
2021/01/30 04:13:08;;;;;;;1.05;0.95;;;5.50;99.90;;;;;;4947122;28;20224;-71
2021/01/30 04:15:37;;;;;;;1.30;0.95;;;5.50;99.90;;;;;;4948217;28;20274;-71
2021/01/30 04:18:04;;;;;;;1.30;0.80;;;5.60;99.90;;;;;;4947759;28;20220;-71
2021/01/30 04:20:31;;;;;;;1.42;0.98;;;5.50;99.90;;;;;;4948117;28;20205;-71
2021/01/30 04:22:57;;;;;;;1.70;0.80;;;5.50;99.90;;;;;;4947318;28;20657;-71
2021/01/30 04:25:25;;;;;;;1.05;0.90;;;5.50;99.90;;;;;;4948022;28;20258;-71
2021/01/30 04:27:52;;;;;;;1.50;0.93;;;5.40;99.90;;;;;;4948077;28;20208;-71
2021/01/30 04:30:22;;;;;;;2.00;1.38;;;5.40;99.90;;;;;;4947803;28;20204;-71
2021/01/30 04:32:48;;;;;;;2.10;1.10;;;5.40;99.90;;;;;;4947926;28;20232;-71
2021/01/30 04:35:16;;;;;;;2.75;1.98;;;5.50;99.90;;;;;;4947948;28;20646;-71
2021/01/30 04:37:42;;;;;;;2.22;0.95;;;5.50;99.90;;;;;;4948252;28;20200;-71
2021/01/30 04:40:11;;;;;;;1.02;0.85;;;5.50;99.90;;;;;;4948175;28;20229;-71
2021/01/30 04:42:46;;;;;;;1.20;1.00;;;5.50;99.90;;;;;;4947675;28;20231;-71
2021/01/30 04:45:22;;;;;;;2.08;0.90;;;5.50;99.90;;;;;;4948146;28;20208;-71
2021/01/30 04:47:55;;;;;;;1.50;0.90;;;5.50;99.90;;;;;;4948148;28;20614;-71
2021/01/30 04:50:29;;;;;;;1.80;0.90;;;5.50;99.90;;;;;;4949541;28;20204;-71
2021/01/30 04:53:02;;;;;;;1.10;0.88;;;5.50;99.90;;;;;;4950865;28;20274;-71
2021/01/30 04:55:40;;;;;;;1.55;1.20;;;5.50;99.90;;;;;;4951274;28;20208;-71
2021/01/30 04:58:14;;;;;;;2.95;1.10;;;5.50;99.90;;;;;;4951160;28;20726;-71
2021/01/30 05:01:00;;;;;;;1.88;1.33;;;5.50;99.90;;;;;;4951368;28;20204;-71
2021/01/30 05:03:54;;;;;;;2.47;0.85;;;5.60;99.90;;;;;;4950609;28;20227;-71
2021/01/30 05:06:28;;;;;;;1.70;1.05;;;5.50;99.90;;;;;;4951300;28;20296;-71
2021/01/30 05:09:01;;;;;;;1.48;1.00;;;5.50;99.90;;;;;;4951514;28;20295;-71
2021/01/30 05:11:30;;;;;;;1.85;1.00;;;5.50;99.90;;;;;;4951005;28;20209;-71
2021/01/30 05:14:04;;;;;;;1.40;1.05;;;5.60;99.90;;;;;;4950921;28;20224;-71
2021/01/30 05:16:35;;;;;;;3.95;1.17;;;5.60;99.90;;;;;;4950940;28;20209;-71
2021/01/30 05:19:05;;;;;;;2.53;1.13;;;5.60;99.90;;;;;;4951120;28;20224;-71
2021/01/30 05:21:40;;;;;;;3.00;1.35;;;5.50;99.90;;;;;;4950534;28;20570;-71
2021/01/30 05:24:08;;;;;;;1.85;1.23;;;5.50;99.90;;;;;;4960215;22;20251;-70
2021/01/30 05:26:53;;;;;;;3.88;1.77;;;5.40;99.90;;;;;;4931656;29;20201;-70
2021/01/30 05:29:24;;;;;;;3.85;1.33;;;5.40;99.90;;;;;;4931709;28;20607;-69
2021/01/30 05:31:57;;;;;;;4.55;1.90;;;5.50;99.90;;;;;;4931780;29;20205;-69
2021/01/30 05:34:29;;;;;;;2.90;1.60;;;5.50;99.90;;;;;;4931378;29;20363;-69
2021/01/30 05:37:00;;;;;;;3.17;1.45;;;5.50;99.90;;;;;;4931846;28;20213;-69
2021/01/30 05:39:54;;;;;;;4.25;1.65;;;5.40;99.90;;;;;;4931068;29;20225;-71
2021/01/30 05:42:29;;;;;;;3.10;1.38;;;5.40;99.90;;;;;;4930904;29;20205;-69
2021/01/30 05:45:07;;;;;;;4.40;1.63;;;5.40;99.90;;;;;;4931571;28;20201;-69
2021/01/30 05:47:34;;;;;;;3.85;1.30;;;5.40;99.90;;;;;;4931619;29;20872;-69
2021/01/30 05:50:09;;;;;;;2.47;1.40;;;5.40;99.90;;;;;;4931298;29;20676;-69
2021/01/30 05:52:37;;;;;;;4.90;1.73;;;5.50;99.90;;;;;;4930948;28;20578;-68
2021/01/30 05:55:04;;;;;;;2.85;1.83;;;5.50;99.90;;;;;;4931632;29;20209;-69
2021/01/30 05:57:30;;;;;;;3.83;1.60;;;5.50;99.90;;;;;;4931198;29;20615;-70
2021/01/30 05:59:59;;;;;;;5.15;1.70;;;5.50;99.90;;;;;;4931372;28;20225;-70
2021/01/30 06:02:28;;;;;;;2.90;1.70;;;5.50;99.90;;;;;;4929463;28;20578;-69
2021/01/30 06:04:54;;;;;;;3.17;1.90;;;5.50;99.90;;;;;;4931348;29;20205;-69
2021/01/30 06:07:28;;;;;;;5.43;1.63;;;5.50;99.90;;;;;;4931204;29;21006;-69
2021/01/30 06:09:55;;;;;;;3.55;1.77;;;5.50;99.90;;;;;;4931405;29;20205;-69
2021/01/30 06:12:25;;;;;;;3.90;1.60;;;5.50;99.90;;;;;;4930461;28;20209;-69
2021/01/30 06:14:53;;;;;;;7.55;2.47;;;5.50;99.90;;;;;;4931157;29;20209;-69
2021/01/30 06:17:31;;;;;;;2.70;1.70;;;5.40;99.90;;;;;;4931056;28;20205;-70
2021/01/30 06:20:14;;;;;;;6.65;2.03;;;5.50;99.90;;;;;;4930913;29;20700;-70
2021/01/30 06:22:41;;;;;;;7.90;1.77;;;5.50;99.90;;;;;;4930468;28;20221;-69
2021/01/30 06:25:26;;;;;;;4.13;1.75;;;5.50;99.90;;;;;;4930731;29;20217;-69
2021/01/30 06:27:56;;;;;;;7.70;2.03;;;5.50;99.90;;;;;;4930926;29;20205;-69
2021/01/30 06:30:37;;;;;;;7.30;2.65;;;5.40;99.90;;;;;;4930395;29;20201;-69
2021/01/30 06:33:15;;;;;;;3.40;2.15;;;5.50;99.90;;;;;;4930347;29;20233;-69
2021/01/30 06:35:41;;;;;;;4.78;1.77;;;5.50;99.90;;;;;;4930793;28;20205;-68
2021/01/30 06:38:16;;;;;;;9.07;2.60;;;5.50;99.90;;;;;;4930853;29;20676;-69
2021/01/30 06:40:53;;;;;;;3.25;1.55;;;5.50;99.90;;;;;;4931110;28;20205;-68
2021/01/30 06:43:26;;;;;;;3.83;1.52;;;5.50;99.90;;;;;;4930116;28;20244;-68
2021/01/30 06:46:03;;;;;;;4.95;2.03;;;5.50;99.90;;;;;;4930992;28;20227;-68
2021/01/30 06:48:32;;;;;;;6.95;2.30;;;5.50;99.90;;;;;;4930607;28;20706;-68
2021/01/30 06:50:59;;;;;;;4.15;2.05;;;5.50;99.90;;;;;;4930833;29;20205;-69
2021/01/30 06:53:28;;;;;;;10.57;2.60;;;5.50;99.90;;;;;;4929631;28;20634;-69
2021/01/30 06:55:55;;;;;;;8.90;2.28;;;5.50;99.90;;;;;;4930754;29;20220;-69
2021/01/30 06:58:26;;;;;;;4.95;2.10;;;5.50;99.90;;;;;;4930261;29;20283;-69
2021/01/30 07:01:06;;;;;;;4.43;2.55;;;5.50;99.90;;;;;;4930678;28;20205;-68
2021/01/30 07:04:05;;;;;;;5.35;1.90;;;5.50;99.90;;;;;;4929238;29;20918;-68
2021/01/30 07:06:41;;;;;;;5.15;1.63;;;5.50;99.90;;;;;;4915549;29;20213;-69
2021/01/30 07:09:24;;;;;;;3.28;1.45;;;5.50;99.90;;;;;;4930412;28;20202;-68
2021/01/30 07:11:55;;;;;;;6.20;1.80;;;5.60;99.90;;;;;;4930029;29;20209;-69
2021/01/30 07:15:01;;;;;;;5.38;2.58;;;5.60;99.90;;;;;;4930263;29;20229;-69
2021/01/30 07:17:55;;;;;;;6.97;2.20;;;5.60;99.90;;;;;;4937304;29;20702;-69
2021/01/30 07:20:33;;;;;;;3.40;1.77;;;5.60;99.90;;;;;;4949031;29;20646;-69
2021/01/30 07:23:05;;;;;;;6.15;2.50;;;5.60;99.90;;;;;;4948830;29;20246;-69
2021/01/30 07:25:38;;;;;;;4.90;2.47;;;5.60;99.90;;;;;;4946499;29;20278;-69
2021/01/30 07:28:12;;;;;;;3.78;1.80;;;5.60;99.90;;;;;;4936808;29;20201;-70
2021/01/30 07:30:46;;;;;;;3.38;2.10;;;5.60;99.90;;;;;;4936831;28;20204;-69
2021/01/30 07:33:17;;;;;;;7.15;2.10;;;5.60;99.90;;;;;;4929053;28;20732;-69
2021/01/30 07:35:55;;;;;;;6.28;2.25;;;5.60;99.90;;;;;;4932525;29;20208;-69
2021/01/30 07:38:29;;;;;;;4.55;2.30;;;5.70;99.90;;;;;;4932153;29;20224;-69
2021/01/30 07:40:58;;;;;;;4.78;2.15;;;5.80;99.90;;;;;;4927343;28;20209;-70
2021/01/30 07:43:29;;;;;;;8.10;1.88;;;5.80;99.90;;;;;;4919346;28;20239;-69
2021/01/30 07:46:06;;;;;;;4.88;2.47;;;5.80;99.90;;;;;;4925612;29;20296;-70
2021/01/30 07:48:37;;;;;;;6.32;2.28;;;5.80;99.90;;;;;;4926695;29;20208;-69
2021/01/30 07:51:08;;;;;;;7.78;2.20;;;5.70;99.90;;;;;;4927408;28;20296;-70
2021/01/30 07:53:35;;;;;;;7.18;2.30;;;5.70;99.90;;;;;;4926124;29;20225;-69
2021/01/30 07:56:29;;;;;;;6.95;2.00;;;5.80;99.90;;;;;;4926208;29;20707;-70
2021/01/30 07:59:19;;;;;;;4.07;2.05;;;5.80;99.90;;;;;;4927381;29;20656;-69
2021/01/30 08:02:00;;;;;;;5.68;2.20;;;5.90;99.90;;;;;;4925502;29;20209;-69
2021/01/30 08:05:00;;;;;;;4.13;1.70;;;5.90;99.90;;;;;;4926608;28;20237;-68
2021/01/30 08:07:39;;;;;;;7.63;3.03;;;6.00;99.90;;;;;;4926626;28;20212;-68
2021/01/30 08:10:10;;;;;;;9.52;3.10;;;6.10;99.90;;;;;;4926681;28;20378;-70
2021/01/30 08:12:55;;;;;;;4.95;2.08;;;6.10;99.90;;;;;;4926059;29;20270;-69
2021/01/30 08:15:24;;;;;;;5.20;2.30;;;6.20;99.90;;;;;;4926532;28;20220;-69
2021/01/30 08:18:03;;;;;;;5.97;2.22;;;6.20;99.90;;;;;;4926884;28;20213;-69
2021/01/30 08:20:39;;;;;;;6.30;3.42;;;6.20;99.90;;;;;;4926309;29;20236;-69
2021/01/30 08:23:11;;;;;;;6.00;1.67;;;6.20;99.90;;;;;;4926277;28;20619;-69
2021/01/30 08:25:45;;;;;;;4.03;1.85;;;6.20;99.90;;;;;;4925743;29;20221;-69
2021/01/30 08:28:16;;;;;;;5.65;1.90;;;6.30;99.90;;;;;;4938333;28;20232;-69
2021/01/30 08:30:44;;;;;;;4.68;2.45;;;6.30;99.90;;;;;;4925734;28;20952;-69
2021/01/30 08:33:10;;;;;;;9.23;3.05;;;6.30;99.90;;;;;;4925486;28;20221;-69
2021/01/30 08:35:44;;;;;;;7.75;2.33;;;6.30;99.90;;;;;;4926556;28;20205;-69
2021/01/30 08:38:29;;;;;;;4.05;1.85;;;6.30;99.90;;;;;;4923419;28;20208;-69
2021/01/30 08:40:57;;;;;;;8.00;2.45;;;6.40;99.90;;;;;;4926549;28;20224;-69
2021/01/30 08:43:38;;;;;;;9.10;2.28;;;6.30;99.90;;;;;;4925342;28;20237;-69
2021/01/30 08:46:31;;;;;;;4.93;2.90;;;6.30;99.90;;;;;;4926441;29;20224;-69
2021/01/30 08:49:12;;;;;;;7.45;2.70;;;6.20;99.90;;;;;;4916596;28;20215;-67
2021/01/30 08:51:38;;;;;;;5.60;2.40;;;6.20;99.90;;;;;;4925607;28;20205;-68
2021/01/30 08:54:28;;;;;;;5.93;2.83;;;6.30;99.90;;;;;;4925951;28;20229;-66
2021/01/30 08:56:54;;;;;;;5.43;2.70;;;6.20;99.90;;;;;;4925920;29;20251;-66
2021/01/30 08:59:41;;;;;;;4.05;2.25;;;6.20;99.90;;;;;;4922586;29;20733;-65
2021/01/30 09:02:09;;;;;;;8.52;2.70;;;6.20;99.90;;;;;;4925208;29;20615;-67
2021/01/30 09:04:45;;;;;;;6.20;2.50;;;6.30;99.90;;;;;;4925140;28;20592;-66
2021/01/30 09:07:34;;;;;;;4.10;2.10;;;6.30;99.90;;;;;;4929784;28;20231;-66
2021/01/30 09:10:25;;;;;;;3.35;1.60;;;6.30;99.90;;;;;;4919846;29;20205;-67
2021/01/30 09:12:54;;;;;;;10.65;2.50;;;6.30;99.90;;;;;;4925028;28;20791;-66
2021/01/30 09:15:53;;;;;;;5.30;2.70;;;6.40;99.90;;;;;;4925353;29;20213;-66
2021/01/30 09:18:27;;;;;;;6.43;2.15;;;6.50;99.90;;;;;;4925534;28;20217;-67
2021/01/30 09:20:57;;;;;;;4.80;2.35;;;6.50;99.90;;;;;;4925450;29;20209;-67
2021/01/30 09:23:38;;;;;;;5.97;2.40;;;6.50;99.90;;;;;;4924628;29;20233;-66
2021/01/30 09:26:09;;;;;;;10.25;2.83;;;6.50;99.90;;;;;;4925586;28;20606;-67
2021/01/30 09:28:36;;;;;;;8.45;2.45;;;6.60;99.90;;;;;;4925338;28;20231;-65
2021/01/30 09:31:06;;;;;;;8.80;2.58;;;6.60;99.90;;;;;;4925861;29;20641;-67
2021/01/30 09:33:36;;;;;;;6.07;2.67;;;6.60;99.90;;;;;;4924814;29;20280;-67
2021/01/30 09:36:12;;;;;;;10.23;3.00;;;6.70;99.90;;;;;;4925890;29;20202;-66
2021/01/30 09:38:41;;;;;;;5.30;2.60;;;6.70;99.90;;;;;;4926556;29;20232;-66
2021/01/30 09:41:21;;;;;;;6.40;3.25;;;6.80;99.90;;;;;;4927423;29;20209;-66
2021/01/30 09:43:48;;;;;;;9.80;2.70;;;6.80;99.90;;;;;;4926784;29;21121;-65
2021/01/30 09:46:20;;;;;;;6.60;2.80;;;6.90;99.90;;;;;;4926441;29;20216;-67
2021/01/30 09:48:48;;;;;;;3.25;2.30;;;6.90;99.90;;;;;;4927159;29;20211;-66
2021/01/30 09:51:15;;;;;;;6.35;2.78;;;6.90;99.90;;;;;;4926526;29;20205;-67
2021/01/30 09:53:48;;;;;;;10.80;2.55;;;6.90;99.90;;;;;;4926285;28;20251;-66
2021/01/30 09:56:17;;;;;;;5.60;1.85;;;7.00;99.90;;;;;;4926745;29;20213;-66
2021/01/30 09:58:51;;;;;;;9.93;3.00;;;7.00;99.90;;;;;;4927433;28;20320;-66
2021/01/30 10:01:25;;;;;;;8.65;2.50;;;7.10;99.90;;;;;;4926856;28;20676;-65
2021/01/30 10:03:53;;;;;;;8.05;2.70;;;7.20;99.90;;;;;;4926497;29;20221;-67
2021/01/30 10:06:29;;;;;;;6.70;2.30;;;7.20;99.90;;;;;;4926408;29;20266;-68
2021/01/30 10:09:08;;;;;;;6.75;2.50;;;7.20;99.90;;;;;;4926508;29;20999;-67
2021/01/30 10:11:37;;;;;;;8.07;3.38;;;7.30;99.90;;;;;;4926676;29;20209;-66
2021/01/30 10:14:05;;;;;;;10.25;2.75;;;7.30;99.90;;;;;;4926370;29;20232;-66
2021/01/30 10:16:32;;;;;;;6.43;3.03;;;7.20;99.90;;;;;;4926623;28;20588;-68
2021/01/30 10:19:02;;;;;;;9.13;3.30;;;7.20;99.90;;;;;;4926622;29;20327;-67
2021/01/30 10:21:31;;;;;;;6.55;2.35;;;7.30;99.90;;;;;;4926446;28;20209;-66
2021/01/30 10:23:58;;;;;;;9.52;3.08;;;7.40;99.90;;;;;;4926028;29;20233;-68
2021/01/30 10:26:26;;;;;;;6.80;2.85;;;7.40;99.90;;;;;;4926229;28;20304;-68
2021/01/30 10:28:55;;;;;;;5.22;2.20;;;7.50;99.90;;;;;;4927134;29;20292;-67
2021/01/30 10:31:26;;;;;;;8.82;2.58;;;7.60;99.90;;;;;;4930505;29;20564;-67
2021/01/30 10:33:58;;;;;;;9.50;2.95;;;7.60;99.90;;;;;;4931385;29;20213;-66
2021/01/30 10:36:27;;;;;;;5.97;2.38;;;7.50;99.90;;;;;;4929091;29;20319;-68
2021/01/30 10:38:55;;;;;;;7.82;2.33;;;7.60;99.90;;;;;;4934272;29;20738;-68
2021/01/30 10:41:24;;;;;;;7.60;2.45;;;7.50;99.90;;;;;;4931149;28;20196;-68
2021/01/30 10:43:58;;;;;;;4.75;2.53;;;7.50;99.90;;;;;;4934441;29;20228;-69
2021/01/30 10:46:32;;;;;;;7.50;2.60;;;7.60;99.90;;;;;;4925492;29;20255;-70
2021/01/30 10:49:03;;;;;;;6.65;2.60;;;7.70;99.90;;;;;;4936833;28;20197;-69
2021/01/30 10:51:32;;;;;;;5.28;2.80;;;7.70;99.90;;;;;;4923069;29;20201;-69
2021/01/30 10:54:11;;;;;;;5.78;2.67;;;7.70;99.90;;;;;;4931225;29;20311;-69
2021/01/30 10:56:37;;;;;;;6.88;3.03;;;7.70;99.90;;;;;;4928597;29;20204;-68
2021/01/30 10:59:22;;;;;;;11.52;3.55;;;7.70;99.90;;;;;;4935363;29;20225;-69
2021/01/30 11:01:48;;;;;;;5.95;2.88;;;7.60;99.90;;;;;;4925167;28;20205;-68
2021/01/30 11:04:26;;;;;;;10.25;2.88;;;7.60;99.90;;;;;;4928432;29;20228;-68
2021/01/30 11:06:57;;;;;;;6.65;2.83;;;7.60;99.90;;;;;;4922677;29;20228;-68
2021/01/30 11:09:26;;;;;;;9.77;2.80;;;7.60;99.90;;;;;;4921834;28;20813;-71
2021/01/30 11:12:07;;;;;;;5.60;2.95;;;7.60;99.90;;;;;;4929093;29;20208;-67
2021/01/30 11:14:34;;;;;;;8.30;3.10;;;7.70;99.90;;;;;;4930608;28;20225;-66
2021/01/30 11:17:03;;;;;;;11.95;3.08;;;7.70;99.90;;;;;;4933205;28;20622;-66
2021/01/30 11:19:41;;;;;;;8.05;2.75;;;7.90;99.90;;;;;;4925695;28;20220;-67
2021/01/30 11:22:17;;;;;;;5.32;2.90;;;8.00;99.90;;;;;;4926428;29;20205;-66
2021/01/30 11:24:47;;;;;;;5.75;2.92;;;8.00;99.90;;;;;;4925740;29;20678;-68
2021/01/30 11:27:29;;;;;;;10.75;3.80;;;8.10;99.90;;;;;;4926267;29;20692;-68
2021/01/30 11:29:56;;;;;;;7.18;3.03;;;8.10;99.90;;;;;;4923877;28;20202;-69
2021/01/30 11:32:23;;;;;;;5.82;2.38;;;8.10;99.90;;;;;;4921992;29;20204;-68
2021/01/30 11:34:55;;;;;;;6.90;3.20;;;8.00;99.90;;;;;;4923587;28;20197;-69
2021/01/30 11:37:23;;;;;;;7.43;2.60;;;8.00;99.90;;;;;;4920083;28;20197;-69
2021/01/30 11:39:49;;;;;;;7.93;2.63;;;8.00;99.90;;;;;;4928516;28;20247;-69
2021/01/30 11:42:15;;;;;;;9.75;2.88;;;8.00;99.90;;;;;;4928514;28;20205;-68
2021/01/30 11:44:41;;;;;;;6.18;2.70;;;7.90;99.90;;;;;;4924135;29;20225;-68
2021/01/30 11:47:08;;;;;;;4.47;2.55;;;8.00;99.90;;;;;;4924252;28;20217;-68
2021/01/30 11:49:34;;;;;;;4.82;2.60;;;8.00;99.90;;;;;;4923653;29;20205;-68
2021/01/30 11:52:00;;;;;;;9.90;3.05;;;8.00;99.90;;;;;;4922574;29;20201;-68
2021/01/30 11:54:27;;;;;;;6.30;2.53;;;7.90;99.90;;;;;;4922867;29;20229;-68
2021/01/30 11:56:53;;;;;;;7.32;2.28;;;7.90;99.90;;;;;;4923398;29;20216;-68
2021/01/30 11:59:19;;;;;;;8.05;2.85;;;7.90;99.90;;;;;;4921483;29;20221;-68
2021/01/30 12:01:46;;;;;;;8.38;3.15;;;7.90;99.90;;;;;;4922772;29;20672;-69
2021/01/30 12:04:12;;;;;;;12.15;2.80;;;7.90;99.90;;;;;;4923192;29;20234;-70
2021/01/30 12:06:40;;;;;;;5.30;2.22;;;7.80;99.90;;;;;;4922766;29;20727;-69
2021/01/30 12:09:06;;;;;;;5.57;2.20;;;7.80;99.90;;;;;;4923560;29;20208;-70
2021/01/30 12:11:33;;;;;;;4.85;2.33;;;7.80;99.90;;;;;;4923091;29;20247;-70
2021/01/30 12:14:00;;;;;;;4.63;2.40;;;7.70;99.90;;;;;;4922774;29;20232;-69
2021/01/30 12:16:27;;;;;;;6.68;2.30;;;7.60;99.90;;;;;;4924396;28;20695;-69
2021/01/30 12:18:53;;;;;;;5.22;3.25;;;7.50;99.90;;;;;;4922929;29;20229;-70
2021/01/30 12:21:20;;;;;;;5.63;2.45;;;7.50;99.90;;;;;;4923243;28;20213;-70
2021/01/30 12:23:46;;;;;;;6.40;3.08;;;7.40;99.90;;;;;;4921998;29;20232;-69
2021/01/30 12:26:18;;;;;;;6.45;2.40;;;7.40;99.90;;;;;;4920067;28;20247;-69
2021/01/30 12:28:45;;;;;;;4.72;2.38;;;7.40;99.90;;;;;;4922843;29;20209;-69
2021/01/30 12:31:11;;;;;;;9.48;2.90;;;7.30;99.90;;;;;;4922073;29;20209;-69
2021/01/30 12:33:37;;;;;;;3.45;2.10;;;7.30;99.90;;;;;;4922910;28;20595;-69
2021/01/30 12:36:04;;;;;;;6.47;2.10;;;7.30;99.90;;;;;;4923015;29;20263;-70
2021/01/30 12:38:33;;;;;;;5.93;2.25;;;7.30;99.90;;;;;;4924910;29;20208;-69
2021/01/30 12:41:00;;;;;;;4.75;2.50;;;7.20;99.90;;;;;;4924458;29;20212;-69
2021/01/30 12:43:27;;;;;;;9.02;3.55;;;7.10;99.90;;;;;;4921565;28;20228;-69
2021/01/30 12:45:54;;;;;;;5.78;2.50;;;7.20;99.90;;;;;;4926478;29;20205;-67
2021/01/30 12:48:20;;;;;;;4.55;2.58;;;7.10;99.90;;;;;;4928330;29;20204;-67
2021/01/30 12:50:48;;;;;;;3.20;1.80;;;7.10;99.90;;;;;;4926727;29;20198;-67
2021/01/30 12:53:15;;;;;;;4.70;3.53;;;7.20;99.90;;;;;;4925517;29;20244;-68
2021/01/30 12:55:41;;;;;;;4.82;2.65;;;7.10;99.90;;;;;;4926455;28;20896;-67
2021/01/30 12:58:12;;;;;;;7.88;2.65;;;7.10;99.90;;;;;;4926945;28;20198;-66
2021/01/30 13:00:39;;;;;;;6.80;2.40;;;7.10;99.90;;;;;;4925549;29;20315;-67
2021/01/30 13:03:06;;;;;;;5.97;2.30;;;7.10;99.90;;;;;;4926606;29;20223;-69
2021/01/30 13:05:32;;;;;;;8.43;2.55;;;7.20;99.90;;;;;;4922547;29;20621;-70
2021/01/30 13:07:58;;;;;;;4.50;2.30;;;7.10;99.90;;;;;;4925441;28;20196;-69
2021/01/30 13:10:25;;;;;;;7.88;2.30;;;7.00;99.90;;;;;;4929541;29;20687;-69
2021/01/30 13:12:51;;;;;;;5.10;2.72;;;7.00;99.90;;;;;;4927556;29;20769;-70
2021/01/30 13:15:18;;;;;;;9.57;4.32;;;6.90;99.90;;;;;;4924563;29;20232;-69
2021/01/30 13:17:44;;;;;;;5.65;2.60;;;6.80;99.90;;;;;;4929011;29;20209;-69
2021/01/30 13:20:12;;;;;;;4.93;2.33;;;6.80;99.90;;;;;;4928534;29;20233;-69